Hauptseite
METAR-TAF:

METAR-TAF

Flughäfen :

Upshur County Regional Airport

Buckhannon, West Virginia, Vereinigte Staaten

Breite: 39-00N, Länge: 080-16W, Höhe: 498 m

Beobachtung

Neuester Wetterbericht von vor 24 Minuten, um 01:55 UTC
Windstille
Temperatur 0°C
Luftfeuchtigkeit 93%
Luftdruck 1021 hPa
Sichtweite: 14.5 km
Durchbrochene Bewölkung in der Höhe von 3200 ft
Geschlossene Wolkendecke in der Höhe von 3700 ft
(schwach) unbekannt

METAR: KW22 160155Z AUTO 00000KT 9SM -UP BKN032 OVC037 M00/M01 A3016 RMK AO2

Zeit: 21:19 (02:19 UTC)


TAF: fehlend

Wetterbeobachtungen und Prognosen von mehr als 4000 Flughäfen (METAR und TAF Bericht).

Die verfügbaren Stationen werden durch gelbe und rote Markierungen auf der Karte dargestellt.

Führen Sie die Maus auf sie, um den Namen der Station zu sehen.

Darauf klicken, um die Beobachtung von Wetterbeobachtungen und Prognosen zu sehen.

Um die Karte zu ändern : klicken Sie auf den grünen Tasten mit einem schwarzen Kreuz Zum Vergrößern, auf den grünen Button mit einem Gedankenstrich zu verkleinern, oder auf die grünen Pfeile für benachbarte Karten.


METAR-TAF: